sensor_id;sensor_type;location;lat;lon;timestamp;pressure;altitude;pressure_sealevel;temperature;humidity
49072;BME280;52656;52.610;10.236;2023-04-15T00:01:46;100418.56;;;8.02;72.73
49072;BME280;52656;52.610;10.236;2023-04-15T00:04:11;100408.06;;;8.00;72.94
49072;BME280;52656;52.610;10.236;2023-04-15T00:06:37;100407.22;;;8.00;73.36
49072;BME280;52656;52.610;10.236;2023-04-15T00:09:03;100398.38;;;8.01;72.82
49072;BME280;52656;52.610;10.236;2023-04-15T00:11:29;100394.81;;;8.02;72.85
49072;BME280;52656;52.610;10.236;2023-04-15T00:13:54;100398.44;;;7.99;72.78
49072;BME280;52656;52.610;10.236;2023-04-15T00:16:19;100393.19;;;7.98;73.37
49072;BME280;52656;52.610;10.236;2023-04-15T00:18:45;100388.94;;;7.94;73.38
49072;BME280;52656;52.610;10.236;2023-04-15T00:21:10;100382.72;;;7.96;73.14
49072;BME280;52656;52.610;10.236;2023-04-15T00:23:36;100388.00;;;7.96;73.87
49072;BME280;52656;52.610;10.236;2023-04-15T00:26:01;100378.19;;;8.00;74.12
49072;BME280;52656;52.610;10.236;2023-04-15T00:28:27;100386.03;;;8.01;73.64
49072;BME280;52656;52.610;10.236;2023-04-15T00:30:52;100381.56;;;8.03;73.20
49072;BME280;52656;52.610;10.236;2023-04-15T00:33:17;100383.19;;;8.07;73.01
49072;BME280;52656;52.610;10.236;2023-04-15T00:35:43;100379.66;;;8.08;73.51
49072;BME280;52656;52.610;10.236;2023-04-15T00:38:08;100372.53;;;8.10;73.47
49072;BME280;52656;52.610;10.236;2023-04-15T00:40:34;100375.16;;;8.10;73.46
49072;BME280;52656;52.610;10.236;2023-04-15T00:43:00;100375.97;;;8.12;73.04
49072;BME280;52656;52.610;10.236;2023-04-15T00:45:25;100373.22;;;8.15;72.89
49072;BME280;52656;52.610;10.236;2023-04-15T00:47:52;100374.06;;;8.18;73.01
49072;BME280;52656;52.610;10.236;2023-04-15T00:50:17;100380.97;;;8.20;72.89
49072;BME280;52656;52.610;10.236;2023-04-15T00:52:43;100369.50;;;8.21;73.35
49072;BME280;52656;52.610;10.236;2023-04-15T00:55:08;100374.06;;;8.18;73.45
49072;BME280;52656;52.610;10.236;2023-04-15T00:57:35;100374.09;;;8.16;73.99
49072;BME280;52656;52.610;10.236;2023-04-15T01:00:01;100369.63;;;8.18;73.28
49072;BME280;52656;52.610;10.236;2023-04-15T01:02:28;100368.78;;;8.18;73.22
49072;BME280;52656;52.610;10.236;2023-04-15T01:04:55;100375.88;;;8.15;73.48
49072;BME280;52656;52.610;10.236;2023-04-15T01:07:21;100371.41;;;8.18;73.69
49072;BME280;52656;52.610;10.236;2023-04-15T01:09:46;100364.22;;;8.21;73.43
49072;BME280;52656;52.610;10.236;2023-04-15T01:12:13;100365.09;;;8.22;73.57
49072;BME280;52656;52.610;10.236;2023-04-15T01:14:39;100368.53;;;8.24;73.39
49072;BME280;52656;52.610;10.236;2023-04-15T01:17:05;100365.91;;;8.24;73.68
49072;BME280;52656;52.610;10.236;2023-04-15T01:19:31;100376.56;;;8.21;73.25
49072;BME280;52656;52.610;10.236;2023-04-15T01:21:57;100364.38;;;8.16;74.43
49072;BME280;52656;52.610;10.236;2023-04-15T01:24:22;100369.66;;;8.16;74.18
49072;BME280;52656;52.610;10.236;2023-04-15T01:26:50;100364.47;;;8.15;73.81
49072;BME280;52656;52.610;10.236;2023-04-15T01:29:16;100361.03;;;8.13;74.42
49072;BME280;52656;52.610;10.236;2023-04-15T01:31:53;100366.34;;;8.11;74.63
49072;BME280;52656;52.610;10.236;2023-04-15T01:34:19;100368.19;;;8.09;75.02
49072;BME280;52656;52.610;10.236;2023-04-15T01:36:45;100362.03;;;8.09;76.03
49072;BME280;52656;52.610;10.236;2023-04-15T01:39:11;100357.63;;;8.09;75.45
49072;BME280;52656;52.610;10.236;2023-04-15T01:41:36;100350.50;;;8.11;75.48
49072;BME280;52656;52.610;10.236;2023-04-15T01:44:02;100356.59;;;8.13;74.85
49072;BME280;52656;52.610;10.236;2023-04-15T01:46:27;100357.50;;;8.12;75.60
49072;BME280;52656;52.610;10.236;2023-04-15T01:48:52;100347.94;;;8.10;75.85
49072;BME280;52656;52.610;10.236;2023-04-15T01:51:18;100344.31;;;8.12;75.92
49072;BME280;52656;52.610;10.236;2023-04-15T01:53:43;100341.66;;;8.12;76.00
49072;BME280;52656;52.610;10.236;2023-04-15T01:56:09;100338.00;;;8.16;76.09
49072;BME280;52656;52.610;10.236;2023-04-15T01:58:35;100335.38;;;8.16;76.85
49072;BME280;52656;52.610;10.236;2023-04-15T02:01:00;100336.19;;;8.19;76.22
49072;BME280;52656;52.610;10.236;2023-04-15T02:03:27;100331.13;;;8.12;76.84
49072;BME280;52656;52.610;10.236;2023-04-15T02:05:53;100329.31;;;8.14;77.31
49072;BME280;52656;52.610;10.236;2023-04-15T02:08:19;100323.09;;;8.15;76.69
49072;BME280;52656;52.610;10.236;2023-04-15T02:10:44;100324.03;;;8.14;76.60
49072;BME280;52656;52.610;10.236;2023-04-15T02:13:09;100323.34;;;8.09;78.37
49072;BME280;52656;52.610;10.236;2023-04-15T02:15:35;100328.53;;;8.11;77.00
49072;BME280;52656;52.610;10.236;2023-04-15T02:18:00;100322.41;;;8.10;77.34
49072;BME280;52656;52.610;10.236;2023-04-15T02:20:26;100329.41;;;8.11;77.49
49072;BME280;52656;52.610;10.236;2023-04-15T02:22:51;100318.06;;;8.09;77.66
49072;BME280;52656;52.610;10.236;2023-04-15T02:25:17;100325.22;;;8.06;77.88
49072;BME280;52656;52.610;10.236;2023-04-15T02:27:42;100319.09;;;8.05;79.01
49072;BME280;52656;52.610;10.236;2023-04-15T02:30:09;100319.09;;;8.05;78.48
49072;BME280;52656;52.610;10.236;2023-04-15T02:32:34;100319.94;;;8.06;78.37
49072;BME280;52656;52.610;10.236;2023-04-15T02:35:05;100315.47;;;8.08;79.22
49072;BME280;52656;52.610;10.236;2023-04-15T02:37:31;100320.69;;;8.09;78.56
49072;BME280;52656;52.610;10.236;2023-04-15T02:39:59;100318.84;;;8.11;78.46
49072;BME280;52656;52.610;10.236;2023-04-15T02:42:25;100325.06;;;8.10;78.11
49072;BME280;52656;52.610;10.236;2023-04-15T02:44:52;100319.78;;;8.10;78.58
49072;BME280;52656;52.610;10.236;2023-04-15T02:47:19;100320.69;;;8.09;78.50
49072;BME280;52656;52.610;10.236;2023-04-15T02:49:44;100318.81;;;8.13;78.93
49072;BME280;52656;52.610;10.236;2023-04-15T02:52:10;100311.78;;;8.12;79.15
49072;BME280;52656;52.610;10.236;2023-04-15T02:54:35;100323.16;;;8.14;78.64
49072;BME280;52656;52.610;10.236;2023-04-15T02:57:00;100321.31;;;8.16;79.02
49072;BME280;52656;52.610;10.236;2023-04-15T02:59:26;100324.09;;;8.13;79.38
49072;BME280;52656;52.610;10.236;2023-04-15T03:01:51;100321.31;;;8.16;78.85
49072;BME280;52656;52.610;10.236;2023-04-15T03:04:16;100316.91;;;8.16;79.78
49072;BME280;52656;52.610;10.236;2023-04-15T03:06:42;100324.81;;;8.16;79.35
49072;BME280;52656;52.610;10.236;2023-04-15T03:09:07;100325.84;;;8.12;79.66
49072;BME280;52656;52.610;10.236;2023-04-15T03:11:34;100331.13;;;8.12;80.00
49072;BME280;52656;52.610;10.236;2023-04-15T03:14:04;100329.22;;;8.16;79.06
49072;BME280;52656;52.610;10.236;2023-04-15T03:16:29;100334.56;;;8.14;79.86
49072;BME280;52656;52.610;10.236;2023-04-15T03:18:55;100325.91;;;8.11;80.97
49072;BME280;52656;52.610;10.236;2023-04-15T03:21:20;100324.03;;;8.14;79.09
49072;BME280;52656;52.610;10.236;2023-04-15T03:23:47;100323.16;;;8.14;79.41
49072;BME280;52656;52.610;10.236;2023-04-15T03:26:29;100315.34;;;8.11;80.04
49072;BME280;52656;52.610;10.236;2023-04-15T03:28:56;100325.91;;;8.11;80.61
49072;BME280;52656;52.610;10.236;2023-04-15T03:31:21;100321.66;;;8.07;82.28
49072;BME280;52656;52.610;10.236;2023-04-15T03:33:47;100320.72;;;8.08;80.42
49072;BME280;52656;52.610;10.236;2023-04-15T03:36:12;100326.06;;;8.06;81.73
49072;BME280;52656;52.610;10.236;2023-04-15T03:38:37;100321.63;;;8.08;80.88
49072;BME280;52656;52.610;10.236;2023-04-15T03:41:03;100323.50;;;8.05;81.73
49072;BME280;52656;52.610;10.236;2023-04-15T03:43:28;100329.53;;;8.08;80.84
49072;BME280;52656;52.610;10.236;2023-04-15T03:45:53;100330.25;;;8.12;80.59
49072;BME280;52656;52.610;10.236;2023-04-15T03:48:19;100330.31;;;8.10;81.94
49072;BME280;52656;52.610;10.236;2023-04-15T03:50:44;100331.13;;;8.12;81.00
49072;BME280;52656;52.610;10.236;2023-04-15T03:53:10;100331.19;;;8.11;80.75
49072;BME280;52656;52.610;10.236;2023-04-15T03:55:35;100329.47;;;8.10;81.27
49072;BME280;52656;52.610;10.236;2023-04-15T03:58:01;100328.66;;;8.08;81.87
49072;BME280;52656;52.610;10.236;2023-04-15T04:00:26;100329.56;;;8.07;82.09
49072;BME280;52656;52.610;10.236;2023-04-15T04:02:51;100329.56;;;8.07;82.43
49072;BME280;52656;52.610;10.236;2023-04-15T04:05:17;100323.34;;;8.09;81.46
49072;BME280;52656;52.610;10.236;2023-04-15T04:07:42;100330.41;;;8.09;82.80
49072;BME280;52656;52.610;10.236;2023-04-15T04:10:08;100327.59;;;8.13;82.05
49072;BME280;52656;52.610;10.236;2023-04-15T04:12:33;100329.31;;;8.14;81.80
49072;BME280;52656;52.610;10.236;2023-04-15T04:14:58;100325.84;;;8.12;82.08
49072;BME280;52656;52.610;10.236;2023-04-15T04:17:24;100329.31;;;8.14;81.23
49072;BME280;52656;52.610;10.236;2023-04-15T04:19:49;100326.94;;;8.07;82.16
49072;BME280;52656;52.610;10.236;2023-04-15T04:22:15;100328.53;;;8.11;81.80
49072;BME280;52656;52.610;10.236;2023-04-15T04:24:40;100328.47;;;8.12;82.03
49072;BME280;52656;52.610;10.236;2023-04-15T04:27:05;100330.25;;;8.12;81.41
49072;BME280;52656;52.610;10.236;2023-04-15T04:29:30;100331.19;;;8.11;82.01
49072;BME280;52656;52.610;10.236;2023-04-15T04:31:56;100332.97;;;8.10;82.24
49072;BME280;52656;52.610;10.236;2023-04-15T04:34:21;100331.19;;;8.11;82.95
49072;BME280;52656;52.610;10.236;2023-04-15T04:36:46;100329.22;;;8.16;82.79
49072;BME280;52656;52.610;10.236;2023-04-15T04:39:12;100330.09;;;8.16;82.10
49072;BME280;52656;52.610;10.236;2023-04-15T04:41:37;100329.38;;;8.13;82.28
49072;BME280;52656;52.610;10.236;2023-04-15T04:44:02;100322.19;;;8.16;82.05
49072;BME280;52656;52.610;10.236;2023-04-15T04:46:28;100320.38;;;8.19;82.04
49072;BME280;52656;52.610;10.236;2023-04-15T04:48:53;100328.31;;;8.17;81.86
49072;BME280;52656;52.610;10.236;2023-04-15T04:51:18;100321.31;;;8.16;82.55
49072;BME280;52656;52.610;10.236;2023-04-15T04:53:44;100316.09;;;8.14;82.63
49072;BME280;52656;52.610;10.236;2023-04-15T04:56:09;100321.44;;;8.13;82.64
49072;BME280;52656;52.610;10.236;2023-04-15T04:58:35;100312.63;;;8.14;82.28
49072;BME280;52656;52.610;10.236;2023-04-15T05:01:00;100313.41;;;8.16;82.93
49072;BME280;52656;52.610;10.236;2023-04-15T05:03:27;100312.47;;;8.17;82.57
49072;BME280;52656;52.610;10.236;2023-04-15T05:05:52;100308.94;;;8.18;82.55
49072;BME280;52656;52.610;10.236;2023-04-15T05:08:18;100316.00;;;8.18;83.16
49072;BME280;52656;52.610;10.236;2023-04-15T05:10:44;100312.44;;;8.19;82.31
49072;BME280;52656;52.610;10.236;2023-04-15T05:13:09;100320.28;;;8.20;83.04
49072;BME280;52656;52.610;10.236;2023-04-15T05:15:35;100317.59;;;8.22;82.34
49072;BME280;52656;52.610;10.236;2023-04-15T05:18:03;100322.88;;;8.22;82.54
49072;BME280;52656;52.610;10.236;2023-04-15T05:20:28;100313.97;;;8.26;82.46
49072;BME280;52656;52.610;10.236;2023-04-15T05:22:53;100315.75;;;8.25;82.49
49072;BME280;52656;52.610;10.236;2023-04-15T05:25:19;100306.84;;;8.28;82.79
49072;BME280;52656;52.610;10.236;2023-04-15T05:27:44;100306.16;;;8.23;82.71
49072;BME280;52656;52.610;10.236;2023-04-15T05:30:10;100303.41;;;8.26;82.98
49072;BME280;52656;52.610;10.236;2023-04-15T05:32:35;100297.38;;;8.22;83.16
49072;BME280;52656;52.610;10.236;2023-04-15T05:35:01;100302.66;;;8.22;82.97
49072;BME280;52656;52.610;10.236;2023-04-15T05:37:26;100305.22;;;8.24;83.23
49072;BME280;52656;52.610;10.236;2023-04-15T05:39:51;100305.22;;;8.24;83.31
49072;BME280;52656;52.610;10.236;2023-04-15T05:42:17;100308.88;;;8.20;83.52
49072;BME280;52656;52.610;10.236;2023-04-15T05:44:42;100307.03;;;8.22;83.37
49072;BME280;52656;52.610;10.236;2023-04-15T05:47:08;100311.41;;;8.23;83.49
49072;BME280;52656;52.610;10.236;2023-04-15T05:49:34;100314.06;;;8.23;83.63
49072;BME280;52656;52.610;10.236;2023-04-15T05:51:59;100316.56;;;8.27;84.03
49072;BME280;52656;52.610;10.236;2023-04-15T05:54:24;100318.47;;;8.22;83.79
49072;BME280;52656;52.610;10.236;2023-04-15T05:56:51;100315.56;;;8.30;83.07
49072;BME280;52656;52.610;10.236;2023-04-15T05:59:17;100318.28;;;8.28;83.87
49072;BME280;52656;52.610;10.236;2023-04-15T06:01:42;100322.72;;;8.26;83.81
49072;BME280;52656;52.610;10.236;2023-04-15T06:04:08;100333.25;;;8.28;83.59
49072;BME280;52656;52.610;10.236;2023-04-15T06:06:33;100343.63;;;8.32;83.57
49072;BME280;52656;52.610;10.236;2023-04-15T06:08:59;100337.13;;;8.18;84.57
49072;BME280;52656;52.610;10.236;2023-04-15T06:11:24;100347.53;;;8.21;84.32
49072;BME280;52656;52.610;10.236;2023-04-15T06:13:50;100347.50;;;8.22;84.35
49072;BME280;52656;52.610;10.236;2023-04-15T06:16:16;100341.16;;;8.28;83.89
49072;BME280;52656;52.610;10.236;2023-04-15T06:18:41;100346.56;;;8.23;85.05
49072;BME280;52656;52.610;10.236;2023-04-15T06:21:06;100349.66;;;8.36;84.46
49072;BME280;52656;52.610;10.236;2023-04-15T06:23:35;100350.44;;;8.38;84.35
49072;BME280;52656;52.610;10.236;2023-04-15T06:26:01;100351.25;;;8.40;83.84
49072;BME280;52656;52.610;10.236;2023-04-15T06:28:26;100352.16;;;8.39;83.79
49072;BME280;52656;52.610;10.236;2023-04-15T06:30:52;100349.25;;;8.47;83.66
49072;BME280;52656;52.610;10.236;2023-04-15T06:33:18;100343.63;;;8.56;83.28
49072;BME280;52656;52.610;10.236;2023-04-15T06:35:43;100346.94;;;8.61;83.71
49072;BME280;52656;52.610;10.236;2023-04-15T06:38:09;100347.81;;;8.61;83.17
49072;BME280;52656;52.610;10.236;2023-04-15T06:40:34;100351.13;;;8.66;83.16
49072;BME280;52656;52.610;10.236;2023-04-15T06:43:00;100346.53;;;8.72;83.12
49072;BME280;52656;52.610;10.236;2023-04-15T06:45:25;100354.53;;;8.70;83.35
49072;BME280;52656;52.610;10.236;2023-04-15T06:47:51;100353.66;;;8.70;83.23
49072;BME280;52656;52.610;10.236;2023-04-15T06:50:16;100349.13;;;8.73;82.98
49072;BME280;52656;52.610;10.236;2023-04-15T06:52:42;100341.97;;;8.77;82.82
49072;BME280;52656;52.610;10.236;2023-04-15T06:55:07;100355.44;;;8.69;83.08
49072;BME280;52656;52.610;10.236;2023-04-15T06:57:33;100351.59;;;8.78;82.68
49072;BME280;52656;52.610;10.236;2023-04-15T06:59:58;100363.19;;;8.74;83.25
49072;BME280;52656;52.610;10.236;2023-04-15T07:02:23;100366.78;;;8.71;83.73
49072;BME280;52656;52.610;10.236;2023-04-15T07:04:49;100365.84;;;8.74;83.21
49072;BME280;52656;52.610;10.236;2023-04-15T07:07:14;100362.16;;;8.78;83.29
49072;BME280;52656;52.610;10.236;2023-04-15T07:09:41;100368.31;;;8.78;83.96
49072;BME280;52656;52.610;10.236;2023-04-15T07:12:06;100358.59;;;8.79;83.18
49072;BME280;52656;52.610;10.236;2023-04-15T07:14:32;100361.13;;;8.82;83.26
49072;BME280;52656;52.610;10.236;2023-04-15T07:16:57;100358.47;;;8.82;83.30
49072;BME280;52656;52.610;10.236;2023-04-15T07:19:22;100359.69;;;8.73;83.87
49072;BME280;52656;52.610;10.236;2023-04-15T07:21:48;100358.94;;;8.70;83.96
49072;BME280;52656;52.610;10.236;2023-04-15T07:24:13;100355.28;;;8.74;84.07
49072;BME280;52656;52.610;10.236;2023-04-15T07:26:43;100363.25;;;8.72;83.90
49072;BME280;52656;52.610;10.236;2023-04-15T07:29:08;100361.47;;;8.73;84.05
49072;BME280;52656;52.610;10.236;2023-04-15T07:31:34;100365.16;;;8.69;84.50
49072;BME280;52656;52.610;10.236;2023-04-15T07:34:01;100375.28;;;8.79;84.46
49072;BME280;52656;52.610;10.236;2023-04-15T07:36:26;100361.91;;;8.84;84.25
49072;BME280;52656;52.610;10.236;2023-04-15T07:38:53;100372.22;;;8.90;83.80
49072;BME280;52656;52.610;10.236;2023-04-15T07:41:19;100367.47;;;9.00;83.45
49072;BME280;52656;52.610;10.236;2023-04-15T07:43:45;100371.75;;;9.02;83.49
49072;BME280;52656;52.610;10.236;2023-04-15T07:46:10;100366.97;;;9.12;83.32
49072;BME280;52656;52.610;10.236;2023-04-15T07:48:36;100380.38;;;9.07;83.68
49072;BME280;52656;52.610;10.236;2023-04-15T07:51:01;100381.03;;;9.12;83.82
49072;BME280;52656;52.610;10.236;2023-04-15T07:53:27;100377.25;;;9.20;83.47
49072;BME280;52656;52.610;10.236;2023-04-15T07:55:52;100379.81;;;9.21;83.11
49072;BME280;52656;52.610;10.236;2023-04-15T07:58:18;100383.69;;;9.12;83.94
49072;BME280;52656;52.610;10.236;2023-04-15T08:00:43;100388.28;;;9.07;84.02
49072;BME280;52656;52.610;10.236;2023-04-15T08:03:09;100381.47;;;9.02;84.05
49072;BME280;52656;52.610;10.236;2023-04-15T08:05:34;100390.22;;;9.04;84.70
49072;BME280;52656;52.610;10.236;2023-04-15T08:07:59;100396.81;;;8.92;84.61
49072;BME280;52656;52.610;10.236;2023-04-15T08:10:25;100390.03;;;9.08;84.27
49072;BME280;52656;52.610;10.236;2023-04-15T08:12:51;100396.72;;;8.95;84.81
49072;BME280;52656;52.610;10.236;2023-04-15T08:15:19;100393.88;;;9.22;83.79
49072;BME280;52656;52.610;10.236;2023-04-15T08:17:44;100390.25;;;9.02;84.46
49072;BME280;52656;52.610;10.236;2023-04-15T08:20:10;100394.41;;;9.09;84.30
49072;BME280;52656;52.610;10.236;2023-04-15T08:22:35;100395.19;;;9.11;84.36
49072;BME280;52656;52.610;10.236;2023-04-15T08:25:01;100394.78;;;9.22;84.14
49072;BME280;52656;52.610;10.236;2023-04-15T08:27:26;100388.97;;;9.12;85.13
49072;BME280;52656;52.610;10.236;2023-04-15T08:29:51;100398.56;;;9.37;83.61
49072;BME280;52656;52.610;10.236;2023-04-15T08:32:17;100399.50;;;9.36;84.39
49072;BME280;52656;52.610;10.236;2023-04-15T08:34:43;100397.34;;;9.46;83.71
49072;BME280;52656;52.610;10.236;2023-04-15T08:37:08;100402.75;;;9.42;83.65
49072;BME280;52656;52.610;10.236;2023-04-15T08:39:33;100401.25;;;9.57;83.72
49072;BME280;52656;52.610;10.236;2023-04-15T08:42:03;100403.78;;;9.60;83.61
49072;BME280;52656;52.610;10.236;2023-04-15T08:44:34;100404.81;;;9.78;82.59
49072;BME280;52656;52.610;10.236;2023-04-15T08:47:01;100405.56;;;9.60;83.32
49072;BME280;52656;52.610;10.236;2023-04-15T08:49:26;100408.16;;;9.61;83.61
49072;BME280;52656;52.610;10.236;2023-04-15T08:51:53;100408.72;;;9.48;83.75
49072;BME280;52656;52.610;10.236;2023-04-15T08:54:20;100406.81;;;9.51;84.03
49072;BME280;52656;52.610;10.236;2023-04-15T08:56:47;100406.22;;;9.45;84.47
49072;BME280;52656;52.610;10.236;2023-04-15T08:59:13;100415.03;;;9.43;84.92
49072;BME280;52656;52.610;10.236;2023-04-15T09:01:39;100414.81;;;9.50;84.39
49072;BME280;52656;52.610;10.236;2023-04-15T09:04:05;100413.94;;;9.49;84.41
49072;BME280;52656;52.610;10.236;2023-04-15T09:06:32;100423.13;;;9.40;84.99
49072;BME280;52656;52.610;10.236;2023-04-15T09:08:57;100423.16;;;9.39;85.03
49072;BME280;52656;52.610;10.236;2023-04-15T09:11:23;100426.06;;;9.33;85.24
49072;BME280;52656;52.610;10.236;2023-04-15T09:13:49;100427.47;;;9.41;84.98
49072;BME280;52656;52.610;10.236;2023-04-15T09:16:14;100433.91;;;9.34;84.74
49072;BME280;52656;52.610;10.236;2023-04-15T09:18:40;100432.97;;;9.35;85.66
49072;BME280;52656;52.610;10.236;2023-04-15T09:21:07;100437.75;;;9.49;85.37
49072;BME280;52656;52.610;10.236;2023-04-15T09:23:36;100442.03;;;9.52;85.32
49072;BME280;52656;52.610;10.236;2023-04-15T09:26:02;100441.59;;;9.62;85.31
49072;BME280;52656;52.610;10.236;2023-04-15T09:28:28;100437.69;;;9.51;85.21
49072;BME280;52656;52.610;10.236;2023-04-15T09:30:57;100447.41;;;9.50;84.98
49072;BME280;52656;52.610;10.236;2023-04-15T09:33:23;100456.50;;;9.65;84.96
49072;BME280;52656;52.610;10.236;2023-04-15T09:36:01;100457.47;;;9.40;85.64
49072;BME280;52656;52.610;10.236;2023-04-15T09:38:26;100467.06;;;9.43;85.45
49072;BME280;52656;52.610;10.236;2023-04-15T09:40:52;100463.56;;;9.42;85.45
49072;BME280;52656;52.610;10.236;2023-04-15T09:43:17;100474.31;;;9.38;85.46
49072;BME280;52656;52.610;10.236;2023-04-15T09:45:51;100457.16;;;9.48;85.47
49072;BME280;52656;52.610;10.236;2023-04-15T09:48:24;100463.63;;;9.41;86.07
49072;BME280;52656;52.610;10.236;2023-04-15T09:50:57;100466.88;;;9.69;84.87
49072;BME280;52656;52.610;10.236;2023-04-15T09:53:23;100456.66;;;9.60;85.13
49072;BME280;52656;52.610;10.236;2023-04-15T09:55:54;100467.31;;;9.59;85.40
49072;BME280;52656;52.610;10.236;2023-04-15T09:58:21;100461.66;;;9.68;84.84
49072;BME280;52656;52.610;10.236;2023-04-15T10:00:48;100463.84;;;9.57;84.95
49072;BME280;52656;52.610;10.236;2023-04-15T10:03:22;100470.19;;;9.75;84.94
49072;BME280;52656;52.610;10.236;2023-04-15T10:05:50;100467.44;;;10.00;84.11
49072;BME280;52656;52.610;10.236;2023-04-15T10:08:21;100461.97;;;10.04;84.20
49072;BME280;52656;52.610;10.236;2023-04-15T10:10:48;100471.13;;;9.96;84.21
49072;BME280;52656;52.610;10.236;2023-04-15T10:13:16;100467.56;;;9.97;83.67
49072;BME280;52656;52.610;10.236;2023-04-15T10:15:44;100463.22;;;10.16;82.66
49072;BME280;52656;52.610;10.236;2023-04-15T10:18:18;100457.38;;;10.49;81.86
49072;BME280;52656;52.610;10.236;2023-04-15T10:20:45;100464.22;;;10.34;81.36
49072;BME280;52656;52.610;10.236;2023-04-15T10:23:11;100456.63;;;10.65;80.29
49072;BME280;52656;52.610;10.236;2023-04-15T10:25:37;100458.31;;;10.48;80.79
49072;BME280;52656;52.610;10.236;2023-04-15T10:28:03;100462.06;;;11.02;78.74
49072;BME280;52656;52.610;10.236;2023-04-15T10:30:31;100456.25;;;11.12;78.03
49072;BME280;52656;52.610;10.236;2023-04-15T10:32:57;100456.84;;;11.00;77.71
49072;BME280;52656;52.610;10.236;2023-04-15T10:35:23;100460.47;;;10.98;78.07
49072;BME280;52656;52.610;10.236;2023-04-15T10:37:48;100465.13;;;10.74;78.95
49072;BME280;52656;52.610;10.236;2023-04-15T10:42:52;100470.22;;;10.78;79.41
49072;BME280;52656;52.610;10.236;2023-04-15T10:45:18;100466.81;;;10.95;79.86
49072;BME280;52656;52.610;10.236;2023-04-15T10:47:43;100471.38;;;10.91;79.59
49072;BME280;52656;52.610;10.236;2023-04-15T10:50:09;100479.34;;;10.71;80.06
49072;BME280;52656;52.610;10.236;2023-04-15T10:52:39;100483.00;;;10.68;79.30
49072;BME280;52656;52.610;10.236;2023-04-15T10:55:13;100472.44;;;10.87;79.76
49072;BME280;52656;52.610;10.236;2023-04-15T10:57:41;100478.69;;;10.66;79.59
49072;BME280;52656;52.610;10.236;2023-04-15T11:02:47;100478.56;;;10.69;80.26
49072;BME280;52656;52.610;10.236;2023-04-15T11:05:16;100477.34;;;10.76;80.65
49072;BME280;52656;52.610;10.236;2023-04-15T11:12:57;100500.91;;;10.63;81.61
49072;BME280;52656;52.610;10.236;2023-04-15T11:15:45;100507.81;;;10.66;82.13
49072;BME280;52656;52.610;10.236;2023-04-15T11:18:22;100518.09;;;10.53;82.33
49072;BME280;52656;52.610;10.236;2023-04-15T11:20:49;100516.56;;;10.48;82.67
49072;BME280;52656;52.610;10.236;2023-04-15T11:23:17;100516.53;;;10.49;82.64
49072;BME280;52656;52.610;10.236;2023-04-15T11:25:43;100526.72;;;10.58;82.00
49072;BME280;52656;52.610;10.236;2023-04-15T11:28:08;100525.31;;;10.29;83.25
49072;BME280;52656;52.610;10.236;2023-04-15T11:30:35;100530.00;;;10.43;82.55
49072;BME280;52656;52.610;10.236;2023-04-15T11:33:09;100536.56;;;10.34;83.27
49072;BME280;52656;52.610;10.236;2023-04-15T11:35:36;100529.38;;;10.58;83.06
49072;BME280;52656;52.610;10.236;2023-04-15T11:38:03;100538.09;;;10.60;82.01
49072;BME280;52656;52.610;10.236;2023-04-15T11:40:30;100545.03;;;10.83;80.55
49072;BME280;52656;52.610;10.236;2023-04-15T11:43:07;100539.41;;;10.91;80.76
49072;BME280;52656;52.610;10.236;2023-04-15T11:45:34;100545.41;;;11.15;78.64
49072;BME280;52656;52.610;10.236;2023-04-15T11:48:08;100543.03;;;11.09;78.98
49072;BME280;52656;52.610;10.236;2023-04-15T11:50:34;100544.84;;;11.08;77.63
49072;BME280;52656;52.610;10.236;2023-04-15T11:53:02;100547.31;;;11.11;77.22
49072;BME280;52656;52.610;10.236;2023-04-15T11:55:28;100543.81;;;11.31;77.06
49072;BME280;52656;52.610;10.236;2023-04-15T11:58:10;100548.63;;;11.42;75.63
49072;BME280;52656;52.610;10.236;2023-04-15T12:00:37;100556.78;;;11.17;76.63
49072;BME280;52656;52.610;10.236;2023-04-15T12:03:17;100557.28;;;11.27;75.83
49072;BME280;52656;52.610;10.236;2023-04-15T12:08:47;100564.38;;;11.83;73.98
49072;BME280;52656;52.610;10.236;2023-04-15T12:11:14;100554.69;;;11.82;73.02
49072;BME280;52656;52.610;10.236;2023-04-15T12:13:44;100557.13;;;12.23;71.64
49072;BME280;52656;52.610;10.236;2023-04-15T12:16:10;100553.97;;;12.51;71.15
49072;BME280;52656;52.610;10.236;2023-04-15T12:18:38;100564.16;;;12.24;71.58
49072;BME280;52656;52.610;10.236;2023-04-15T12:21:10;100564.91;;;12.26;71.56
49072;BME280;52656;52.610;10.236;2023-04-15T12:23:57;100567.25;;;12.51;70.17
49072;BME280;52656;52.610;10.236;2023-04-15T12:29:03;100564.66;;;12.84;69.04
49072;BME280;52656;52.610;10.236;2023-04-15T12:31:29;100558.69;;;13.13;67.01
49072;BME280;52656;52.610;10.236;2023-04-15T12:33:55;100553.53;;;13.59;65.70
49072;BME280;52656;52.610;10.236;2023-04-15T12:36:21;100553.63;;;14.05;64.73
49072;BME280;52656;52.610;10.236;2023-04-15T12:38:47;100551.53;;;14.86;62.95
49072;BME280;52656;52.610;10.236;2023-04-15T12:41:12;100547.16;;;15.28;61.30
49072;BME280;52656;52.610;10.236;2023-04-15T12:43:38;100557.91;;;14.84;60.92
49072;BME280;52656;52.610;10.236;2023-04-15T12:46:03;100555.69;;;14.46;61.53
49072;BME280;52656;52.610;10.236;2023-04-15T12:48:29;100564.81;;;14.42;62.20
49072;BME280;52656;52.610;10.236;2023-04-15T12:50:54;100566.19;;;14.33;61.64
49072;BME280;52656;52.610;10.236;2023-04-15T12:53:20;100566.78;;;13.92;63.80
49072;BME280;52656;52.610;10.236;2023-04-15T12:55:45;100561.09;;;13.83;64.72
49072;BME280;52656;52.610;10.236;2023-04-15T12:58:10;100566.03;;;13.57;65.49
49072;BME280;52656;52.610;10.236;2023-04-15T13:00:36;100566.69;;;13.78;65.72